Historyczne dane pomiarowe

Dodano dane terminowe – wersja testowa.

Dane z okresu 1951-2019

Wersja bazy: 1.34 [2019-03-16, lista zmian], aktualizacja planowana na 2019-04-15

Dane meteo z obszaru Polski uzyskane na podstawie danych udostępnionych przez Instytut Meteorologii i Gospodarki Wodnej – Państwowy Instytut Badawczy.

 

Wybierz Datę:    

       

TemperaturaWilgotnośćWiatrCiśnienieOpadyŚniegCzas trwania zjawisk
 Stacja t tx tn tng RH VA  wxwx mslp ppp RRR   cm mm wxwxwxwxwxwxwx
1961-08-14 12.4 17.7 5.9 2.5 80.3- 3.3 1.0---- 0.1------------
1961-08-13 11.8 15.0 10.2 10.8 91.0- 8.0 0.7---- 3.8------------
1961-08-12 14.3 19.5 11.8 10.3 93.5- 7.7 0.3---- 10.2------------
1961-08-11 17.2 21.6 15.0 15.0 94.0- 7.7 0.3---- 4.5------------
1961-08-10 21.6 27.3 15.7 14.2 86.0- 4.7 0.7---- 4.7------------
1961-08-09 18.9 22.8 15.4 12.4 93.0- 8.0 0.0---- 5.6------------
1961-08-08 18.7 24.9 12.8 11.6 85.8- 7.3 1.0---- 0.1------------
1961-08-07 18.3 23.7 16.3 15.9 88.0- 8.0 0.3---- 3.6------------
1961-08-06 24.0 28.2 17.1 11.5 52.8- 0.3 1.3---- 7.4------------
1961-08-05 17.8 23.0 11.1 8.1 77.3- 4.3 0.7---- 0.0------------
1961-08-04 14.3 18.7 5.3 1.7 72.5- 8.0 1.0---- 0.2------------
1961-08-03 12.7 18.8 9.5 9.9 92.5- 5.0 1.3---- 1.0------------
1961-08-02 17.1 24.2 8.3 5.3 81.3- 5.0 0.7---- 1.4------------
1961-08-01 13.5 19.4 10.8 7.0 73.0- 1.0 2.3---- 0.0------------
1961-07-31 12.0 16.3 9.1 9.6 81.8- 6.7 1.7---- 2.7------------
1961-07-30 10.7 12.8 7.5 5.2 89.5- 8.0 1.0---- 9.1------------
1961-07-29 11.3 15.3 9.7 9.7 88.5- 8.0 0.3---- 0.0------------
1961-07-28 16.0 20.1 13.9 11.6 88.0- 8.0 2.0---- 27.1------------
1961-07-27 17.7 22.1 12.3 9.3 74.3- 8.0 1.3---- 0.7------------
1961-07-26 16.8 22.4 5.3 2.6 67.0- 1.7 2.0---- 0.0------------
1961-07-25 11.2 17.2 8.5 5.8 82.3- 6.0 0.3---- 0.0------------
1961-07-24 12.4 16.8 9.6 9.1 75.5- 8.0 0.3---- 0.0------------
1961-07-23 13.2 17.7 8.7 5.6 81.3- 8.0 0.7---- 0.0------------
1961-07-22 13.2 17.3 11.1 9.2 85.0- 8.0 1.0---- 0.0------------
1961-07-21 13.3 16.1 10.1 7.7 79.3- 8.0 1.7---- 0.2------------
1961-07-20 13.0 18.3 8.1 5.6 81.8- 5.3 1.0---- 8.5------------
1961-07-19 12.9 17.9 10.2 8.6 83.3- 8.0 1.0---- 0.0------------
1961-07-18 12.8 18.4 9.4 7.2 81.8- 8.0 0.7---- 0.5------------
1961-07-17 12.2 15.0 7.9 5.2 76.5- 5.7 1.7---- 1.2------------
1961-07-16 14.6 19.9 11.3 11.2 76.3- 6.0 1.0---- 0.0------------
1961-07-15 17.2 21.9 14.3 12.7 71.0- 7.3 1.7---- 19.0------------
1961-07-14 15.1 20.3 9.4 9.7 60.5- 6.3 3.7---- 0.2------------
1961-07-13 16.6 22.8 12.5 14.2 84.5- 8.0 1.7---- 6.9------------
1961-07-12 21.6 27.0 14.1 12.6 68.5- 1.0 1.3---- 0.0------------
1961-07-11 16.8 22.5 5.5 2.4 72.0- 7.7 1.3---- 2.2------------
1961-07-10 11.7 17.9 7.0 4.2 82.5- 5.3 1.0---- 2.0------------
1961-07-09 12.9 15.6 8.2 4.6 80.3- 8.0 1.7---- 4.5------------
1961-07-08 13.0 20.2 4.4 0.9 72.0- 2.0 0.7---- 0.0------------
1961-07-07 10.8 16.7 6.7 4.2 77.3- 6.7 0.3---- 0.0------------
1961-07-06 11.0 14.6 6.6 2.6 69.0- 7.7 2.0---- 0.0------------
1961-07-05 12.1 16.7 9.7 10.2 68.0- 4.0 2.7---- 0.0------------
1961-07-04 19.4 25.7 13.7 10.7 64.3- 6.0 2.0---- 0.0------------
1961-07-03 22.1 30.0 12.7 8.7 64.0- 1.0 0.7---- 0.0------------
1961-07-02 20.4 28.6 11.1 7.6 63.5- 0.0 0.3---- 0.0------------
1961-07-01 18.8 27.1 9.0 5.1 71.0- 0.0 0.3---- 0.0------------
1961-06-30 16.8 23.8 7.3 3.4 70.8- 0.0 0.3---- 0.0------------
1961-06-29 14.5 20.5 5.2 2.3 74.5- 1.0 0.7---- 0.0------------
1961-06-28 11.8 20.9 8.8 11.3 75.3- 5.3 1.3---- 0.0------------
1961-06-27 22.4 27.3 15.9 11.8 71.8- 7.0 1.0---- 11.2------------
1961-06-26 20.0 26.1 15.4 11.2 78.3- 3.7 0.3---- 0.0------------
1961-06-25 20.7 27.2 12.1 7.7 60.5- 0.0 1.0---- 0.0------------
1961-06-24 17.2 23.9 8.7 5.2 72.5- 3.3 0.7---- 0.0------------
1961-06-23 16.2 22.1 11.8 8.4 76.8- 4.3 1.3---- 0.0------------
1961-06-22 19.8 24.8 7.8 4.9 64.5- 3.7 1.0---- 2.8------------
1961-06-21 15.6 22.9 4.6 0.7 66.5- 4.7 1.7---- 0.0------------
1961-06-20 12.0 18.4 5.4 2.2 76.5- 1.7 0.3---- 0.0------------
1961-06-19 15.7 22.1 12.2 9.2 84.0- 5.3 0.7---- 0.4------------
1961-06-18 18.3 24.6 7.0 4.1 69.0- 0.0 0.7---- 0.0------------
1961-06-17 14.0 22.1 5.2 2.1 69.8- 1.3 0.7---- 0.0------------
1961-06-16 12.3 22.1 3.4 -0.1 80.3- 1.7 0.7---- 0.0------------
266.1 ms

 

Źródłem pochodzenia danych jest Instytut Meteorologii i Gospodarki Wodnej – Państwowy Instytut Badawczy. Dane Instytutu Meteorologii i Gospodarki Wodnej – Państwowego Instytutu Badawczego zostały przetworzone.

Dane źródłowe można odnaleźć na stronie https://dane.imgw.pl